This is the latest recevied weather packets stored in our database for station/object KD8DNO-13. If no packets are shown the sender has not sent any weather packets the latest 1 day(s).
| Time | Temp. | Humidity | Pressure | Rain* | Wind** | Luminosity | Snow |
|---|---|---|---|---|---|---|---|
| 1778225884 | 8.33° C | 71% | 1014.2 hPa | 0 mm | - | - | - |
| 1778221681 | 8.33° C | 65% | 1015.2 hPa | 0 mm | - | - | - |
| 1778221381 | 8.33° C | 63% | 1014.9 hPa | 0 mm | - | - | - |
| 1778221081 | 8.33° C | 64% | 1014.9 hPa | 0 mm | - | - | - |
| 1778220781 | 8.33° C | 65% | 1014.5 hPa | 0 mm | - | - | - |
| 1778220481 | 8.33° C | 65% | 1014.5 hPa | 0 mm | - | - | - |
| 1778220182 | 8.33° C | 66% | 1014.5 hPa | 0 mm | - | - | - |
| 1778219881 | 8.33° C | 66% | 1014.5 hPa | 0 mm | - | - | - |
| 1778219581 | 8.33° C | 66% | 1014.5 hPa | 0 mm | - | - | - |
| 1778218982 | 8.33° C | 68% | 1014.5 hPa | 0 mm | - | - | - |
| 1778218681 | 8.33° C | 67% | 1014.5 hPa | 0 mm | - | - | - |
| 1778218381 | 8.33° C | 67% | 1014.5 hPa | 0 mm | - | - | - |
| 1778218081 | 7.78° C | 66% | 1014.5 hPa | 0 mm | - | - | - |
| 1778217781 | 8.33° C | 67% | 1014.9 hPa | 0 mm | - | - | - |
| 1778217481 | 8.33° C | 64% | 1014.9 hPa | 0 mm | - | - | - |
| 1778217181 | 8.33° C | 65% | 1014.9 hPa | 0 mm | - | - | - |
| 1778216881 | 8.33° C | 65% | 1014.9 hPa | 0 mm | - | - | - |
| 1778216581 | 8.33° C | 64% | 1014.9 hPa | 0 mm | - | - | - |
| 1778216281 | 8.33° C | 64% | 1015.2 hPa | 0 mm | - | - | - |
| 1778215981 | 8.33° C | 65% | 1015.2 hPa | 0 mm | - | - | - |
| 1778215381 | 7.78° C | 68% | 1014.9 hPa | 0 mm | - | - | - |
| 1778215081 | 7.78° C | 66% | 1014.9 hPa | 0 mm | - | - | - |
| 1778214781 | 7.78° C | 66% | 1014.9 hPa | 0 mm | - | - | - |
| 1778214191 | 7.78° C | 66% | 1014.9 hPa | 0 mm | - | - | - |
| 1778213881 | 7.78° C | 67% | 1014.9 hPa | 0 mm | - | - | - |
* Rain latest hour (hover to see other rain measurements)
** Current wind speed in m/s (hover to see current wind gust speed)